Time;durP1;ratioP1;P1;durP2;ratioP2;P2;SDS_P1;SDS_P2;PMS_P1;PMS_P2;Temp;Humidity;BMP_temperature;BMP_pressure;BME280_temperature;BME280_humidity;BME280_pressure;Samples;Min_cycle;Max_cycle;Signal;HPM_P1;HPM_P2
2023/08/21 00:00:15;;;;;;;5.03;3.90;;;26.60;99.90;;;27.33;70.04;101057.78;4983807;28;20745;-64
2023/08/21 00:02:42;;;;;;;4.93;3.60;;;26.60;99.90;;;27.32;70.01;101056.16;4994750;28;20636;-64
2023/08/21 00:05:09;;;;;;;4.60;4.20;;;26.60;99.90;;;27.30;70.11;101064.38;4979218;28;20638;-65
2023/08/21 00:07:36;;;;;;;4.80;4.10;;;26.60;99.90;;;27.30;70.04;101063.56;4979948;28;20714;-64
2023/08/21 00:10:03;;;;;;;5.17;4.17;;;26.60;99.90;;;27.27;69.69;101066.66;4992473;28;20729;-64
2023/08/21 00:12:30;;;;;;;3.93;3.57;;;26.50;99.90;;;27.24;70.18;101059.03;4987796;28;20674;-63
2023/08/21 00:14:58;;;;;;;4.20;3.83;;;26.50;99.90;;;27.19;70.01;101058.84;5007011;28;20627;-65
2023/08/21 00:17:25;;;;;;;4.33;3.93;;;26.40;99.90;;;27.13;70.40;101057.81;4975054;28;21078;-64
2023/08/21 00:19:52;;;;;;;3.90;3.60;;;26.40;99.90;;;27.10;70.25;101052.88;4990707;28;21233;-64
2023/08/21 00:22:19;;;;;;;5.67;4.60;;;26.40;99.90;;;27.08;70.13;101057.63;4979215;28;20728;-64
2023/08/21 00:24:46;;;;;;;4.53;4.00;;;26.30;99.90;;;27.07;70.06;101061.31;4986383;28;20641;-63
2023/08/21 00:27:13;;;;;;;5.90;3.97;;;26.30;99.90;;;27.05;69.99;101057.19;4987493;28;20634;-63
2023/08/21 00:29:39;;;;;;;6.90;4.40;;;26.30;99.90;;;27.03;70.29;101053.91;5006321;28;20696;-64
2023/08/21 00:32:06;;;;;;;4.57;4.17;;;26.30;99.90;;;27.01;70.66;101054.13;4980013;28;21229;-63
2023/08/21 00:34:33;;;;;;;5.20;4.70;;;26.30;99.90;;;27.02;70.43;101055.78;4982651;28;20630;-64
2023/08/21 00:37:00;;;;;;;8.40;4.40;;;26.30;99.90;;;27.01;70.37;101054.13;4976926;28;20626;-64
2023/08/21 00:39:27;;;;;;;6.60;5.07;;;26.30;99.90;;;27.02;70.10;101058.44;4985465;28;20662;-66
2023/08/21 00:41:55;;;;;;;5.23;4.73;;;26.30;99.90;;;27.04;70.16;101056.41;5000121;28;20722;-64
2023/08/21 00:44:21;;;;;;;4.00;3.60;;;26.30;99.90;;;27.01;70.23;101055.97;4986736;28;21265;-63
2023/08/21 00:46:48;;;;;;;4.23;3.93;;;26.30;99.90;;;26.97;70.15;101052.06;4987405;28;21259;-64
2023/08/21 00:49:15;;;;;;;3.67;3.37;;;26.30;99.90;;;26.94;70.68;101052.47;4986257;28;20634;-66
2023/08/21 00:51:43;;;;;;;5.43;4.50;;;26.20;99.90;;;26.91;70.68;101048.34;4980843;28;21282;-64
2023/08/21 00:54:10;;;;;;;5.90;4.47;;;26.20;99.90;;;26.88;70.80;101048.75;5000803;28;20769;-64
2023/08/21 00:56:38;;;;;;;4.83;4.33;;;26.20;99.90;;;26.84;71.02;101040.31;4995852;28;20638;-63
2023/08/21 00:59:05;;;;;;;6.67;4.93;;;26.10;99.90;;;26.83;71.02;101045.91;4982626;28;20626;-63
2023/08/21 01:01:33;;;;;;;5.00;4.33;;;26.10;99.90;;;26.86;70.62;101053.50;4978031;28;20666;-64
2023/08/21 01:04:00;;;;;;;4.70;4.13;;;26.10;99.90;;;26.88;70.67;101051.44;4995285;28;20681;-65
2023/08/21 01:06:27;;;;;;;6.00;4.83;;;26.10;99.90;;;26.92;70.32;101050.00;4989880;28;20643;-63
2023/08/21 01:09:07;;;;;;;7.60;4.70;;;26.20;99.90;;;26.91;70.33;101053.72;5001613;28;20630;-63
2023/08/21 01:11:57;;;;;;;6.10;4.40;;;26.20;99.90;;;26.88;70.55;101051.44;4991039;28;20658;-64
2023/08/21 01:14:27;;;;;;;4.33;3.93;;;26.10;99.90;;;26.86;70.49;101054.34;4978912;28;20749;-64
2023/08/21 01:16:59;;;;;;;10.33;4.53;;;26.10;99.90;;;26.85;70.54;101054.53;4990102;28;20623;-63
2023/08/21 01:19:53;;;;;;;8.93;4.30;;;26.10;99.90;;;26.81;70.27;101058.66;4991072;28;20726;-65
2023/08/21 01:22:20;;;;;;;6.10;4.60;;;26.10;99.90;;;26.80;70.37;101057.00;4976968;28;20659;-63
2023/08/21 01:24:46;;;;;;;7.20;4.70;;;26.10;99.90;;;26.80;70.56;101052.47;4987380;28;20641;-64
2023/08/21 01:27:15;;;;;;;6.50;4.53;;;26.10;99.90;;;26.84;70.37;101059.06;4979638;28;20634;-63
2023/08/21 01:29:43;;;;;;;5.03;4.30;;;26.10;99.90;;;26.85;70.26;101062.56;4991463;28;20646;-64
2023/08/21 01:32:40;;;;;;;4.30;3.87;;;26.20;99.90;;;26.84;70.43;101067.09;4978272;28;20650;-65
2023/08/21 01:35:08;;;;;;;9.13;4.80;;;26.10;99.90;;;26.82;70.27;101060.28;4985363;28;21193;-64
2023/08/21 01:37:36;;;;;;;6.43;3.90;;;26.10;99.90;;;26.81;70.28;101074.72;4963388;28;20721;-65
2023/08/21 01:40:04;;;;;;;4.33;3.93;;;26.10;99.90;;;26.75;70.64;101075.53;4982464;28;20643;-64
2023/08/21 01:42:31;;;;;;;4.73;4.30;;;26.10;99.90;;;26.71;70.74;101067.06;4970179;28;20689;-64
2023/08/21 01:44:58;;;;;;;6.03;4.60;;;26.00;99.90;;;26.68;70.77;101072.00;4982665;28;20635;-65
2023/08/21 01:47:25;;;;;;;4.00;3.67;;;26.00;99.90;;;26.65;71.04;101072.41;5003822;28;20634;-64
2023/08/21 01:49:52;;;;;;;5.37;4.00;;;26.00;99.90;;;26.60;71.23;101081.03;4977081;28;20643;-65
2023/08/21 01:52:19;;;;;;;3.40;3.10;;;25.90;99.90;;;26.52;71.20;101081.22;4978601;28;20689;-64
2023/08/21 01:54:47;;;;;;;3.90;3.50;;;25.90;99.90;;;26.46;71.51;101076.69;4976930;28;21458;-64
2023/08/21 01:57:14;;;;;;;7.20;3.80;;;25.80;99.90;;;26.43;72.10;101077.09;4985702;28;20630;-64
2023/08/21 01:59:41;;;;;;;3.80;3.40;;;25.80;99.90;;;26.39;72.17;101075.03;4969205;28;20640;-63
2023/08/21 02:02:08;;;;;;;3.57;3.27;;;25.70;99.90;;;26.32;72.25;101075.03;4964217;28;20728;-64
2023/08/21 02:04:35;;;;;;;3.47;3.20;;;25.70;99.90;;;26.28;72.56;101072.97;4981520;28;21203;-64
2023/08/21 02:07:02;;;;;;;4.17;3.70;;;25.60;99.90;;;26.22;72.68;101074.56;4978039;28;20643;-63
2023/08/21 02:09:29;;;;;;;3.50;3.20;;;25.50;99.90;;;26.17;72.83;101077.84;4984298;28;20737;-64
2023/08/21 02:11:56;;;;;;;5.20;3.70;;;25.50;99.90;;;26.11;73.41;101078.66;4997026;28;20686;-64
2023/08/21 02:14:23;;;;;;;3.90;3.43;;;25.40;99.90;;;26.06;72.98;101078.41;4980439;28;20779;-65
2023/08/21 02:16:50;;;;;;;3.87;3.50;;;25.40;99.90;;;26.02;73.50;101074.47;4985944;28;20686;-64
2023/08/21 02:19:17;;;;;;;3.33;3.03;;;25.40;99.90;;;26.00;73.70;101079.19;4987498;28;20761;-65
2023/08/21 02:21:43;;;;;;;6.37;4.60;;;25.30;99.90;;;25.97;73.94;101074.25;4974242;28;20750;-64
2023/08/21 02:24:10;;;;;;;4.17;3.77;;;25.30;99.90;;;25.93;74.20;101077.53;4989172;28;20661;-64
2023/08/21 02:26:37;;;;;;;6.77;4.00;;;25.20;99.90;;;25.89;74.27;101082.47;4993595;28;20710;-64
2023/08/21 02:29:04;;;;;;;4.70;4.20;;;25.20;99.90;;;25.85;74.31;101072.34;4979760;28;20649;-64
2023/08/21 02:31:31;;;;;;;4.53;4.10;;;25.20;99.90;;;25.83;74.72;101072.53;4985509;28;20768;-65
2023/08/21 02:33:58;;;;;;;5.80;4.00;;;25.20;99.90;;;25.78;74.67;101071.50;4992039;28;20662;-64
2023/08/21 02:36:25;;;;;;;5.00;4.50;;;25.20;99.90;;;25.74;74.96;101068.41;4984067;28;20728;-64
2023/08/21 02:38:52;;;;;;;5.00;4.30;;;25.10;99.90;;;25.74;75.02;101079.09;4986092;28;20648;-64
2023/08/21 02:41:19;;;;;;;5.83;4.30;;;25.10;99.90;;;25.71;74.84;101074.13;4982913;28;20688;-64
2023/08/21 02:43:46;;;;;;;6.83;4.80;;;25.10;99.90;;;25.67;75.47;101082.72;4990199;28;20653;-64
2023/08/21 02:46:13;;;;;;;6.27;4.17;;;25.00;99.90;;;25.63;75.51;101084.16;4976159;28;21186;-63
2023/08/21 02:48:39;;;;;;;4.60;3.90;;;25.00;99.90;;;25.60;76.02;101085.38;4984645;28;21020;-65
2023/08/21 02:51:06;;;;;;;7.00;4.10;;;24.90;99.90;;;25.55;75.77;101079.81;5006422;28;20660;-64
2023/08/21 02:53:33;;;;;;;6.30;4.33;;;24.90;99.90;;;25.53;75.77;101081.84;4975464;28;20663;-64
2023/08/21 02:56:00;;;;;;;7.30;4.17;;;24.90;99.90;;;25.52;76.28;101085.53;4993598;28;21175;-65
2023/08/21 02:58:27;;;;;;;5.60;4.50;;;24.90;99.90;;;25.53;76.34;101086.38;4986920;28;20728;-64
2023/08/21 03:00:55;;;;;;;7.37;4.73;;;24.90;99.90;;;25.52;76.03;101084.69;4985349;28;20757;-64
2023/08/21 03:03:22;;;;;;;6.40;4.77;;;24.90;99.90;;;25.51;76.29;101089.25;4982814;28;21145;-64
2023/08/21 03:05:49;;;;;;;5.00;4.03;;;24.90;99.90;;;25.52;76.28;101082.84;4989225;28;21035;-64
2023/08/21 03:08:16;;;;;;;5.30;4.23;;;24.90;99.90;;;25.54;76.33;101080.81;4969955;28;20729;-64
2023/08/21 03:10:43;;;;;;;6.93;5.77;;;24.90;99.90;;;25.52;76.06;101082.84;4993876;28;21102;-64
2023/08/21 03:13:10;;;;;;;6.47;5.03;;;24.90;99.90;;;25.55;75.91;101084.31;4985428;28;20761;-64
2023/08/21 03:15:37;;;;;;;7.83;5.60;;;24.90;99.90;;;25.58;76.03;101076.72;4982781;28;21222;-64
2023/08/21 03:18:04;;;;;;;6.90;5.37;;;24.90;99.90;;;25.62;76.04;101072.63;4978592;28;20656;-64
2023/08/21 03:20:31;;;;;;;6.13;5.53;;;24.90;99.90;;;25.63;75.52;101084.97;4992175;28;21023;-65
2023/08/21 03:22:58;;;;;;;7.20;5.70;;;25.00;99.90;;;25.63;75.67;101078.81;4987305;28;20642;-65
2023/08/21 03:25:25;;;;;;;6.20;4.93;;;25.00;99.90;;;25.64;75.72;101075.13;4974161;28;20634;-64
2023/08/21 03:27:52;;;;;;;6.40;5.20;;;25.00;99.90;;;25.61;75.60;101081.69;4991359;28;20644;-64
2023/08/21 03:30:19;;;;;;;7.10;5.47;;;25.00;99.90;;;25.62;75.72;101088.66;4970471;28;21041;-64
2023/08/21 03:32:46;;;;;;;6.83;5.43;;;25.00;99.90;;;25.62;75.67;101090.53;4992309;28;20635;-64
2023/08/21 03:35:13;;;;;;;5.60;5.00;;;25.00;99.90;;;25.59;75.93;101078.38;4983958;28;21559;-64
2023/08/21 03:37:40;;;;;;;7.43;4.80;;;24.90;99.90;;;25.58;76.13;101079.41;4988636;28;20627;-64
2023/08/21 03:40:07;;;;;;;6.30;4.83;;;24.90;99.90;;;25.53;75.78;101076.50;4985893;28;20634;-64
2023/08/21 03:42:34;;;;;;;5.83;4.67;;;24.90;99.90;;;25.50;76.07;101084.06;4976970;28;20935;-65
2023/08/21 03:45:04;;;;;;;7.07;5.37;;;24.80;99.90;;;25.47;76.08;101084.47;4991129;28;20641;-64
2023/08/21 03:47:31;;;;;;;7.90;6.07;;;24.80;99.90;;;25.46;76.58;101083.66;4989099;28;20710;-64
2023/08/21 03:49:58;;;;;;;5.33;4.83;;;24.80;99.90;;;25.47;76.44;101087.94;4984850;28;20716;-64
2023/08/21 03:52:25;;;;;;;7.37;5.77;;;24.80;99.90;;;25.50;76.20;101090.25;4985274;28;20702;-63
2023/08/21 03:54:52;;;;;;;9.13;6.20;;;24.80;99.90;;;25.48;76.52;101092.28;4974618;28;20701;-64
2023/08/21 03:57:19;;;;;;;7.87;5.67;;;24.80;99.90;;;25.47;76.42;101090.63;4985175;28;20635;-65
2023/08/21 03:59:46;;;;;;;8.47;5.63;;;24.80;99.90;;;25.45;76.40;101087.31;4989898;28;20622;-64
2023/08/21 04:02:13;;;;;;;8.13;5.20;;;24.80;99.90;;;25.47;76.55;101087.94;4989250;28;20750;-64
2023/08/21 04:04:40;;;;;;;8.60;5.67;;;24.80;99.90;;;25.47;76.20;101098.63;4992608;28;20684;-63
2023/08/21 04:07:07;;;;;;;6.67;5.73;;;24.80;99.90;;;25.47;76.15;101103.19;4992135;28;20635;-64
2023/08/21 04:09:33;;;;;;;7.60;5.70;;;24.80;99.90;;;25.45;76.47;101107.91;5000572;28;21479;-64
2023/08/21 04:12:00;;;;;;;8.30;4.80;;;24.80;99.90;;;25.44;76.27;101101.72;4980169;28;20666;-64
2023/08/21 04:14:27;;;;;;;11.03;6.77;;;24.80;99.90;;;25.40;76.31;101108.44;4983587;28;20761;-64
2023/08/21 04:16:54;;;;;;;10.27;5.77;;;24.80;99.90;;;25.38;76.70;101108.63;4986299;28;20750;-63
2023/08/21 04:19:21;;;;;;;7.60;6.00;;;24.70;99.90;;;25.37;76.51;101111.50;4985313;28;20636;-63
2023/08/21 04:21:48;;;;;;;8.70;6.07;;;24.70;99.90;;;25.37;76.78;101100.81;4999701;28;20749;-63
2023/08/21 04:24:15;;;;;;;9.67;6.00;;;24.70;99.90;;;25.36;76.38;101105.31;4970230;28;21068;-63
2023/08/21 04:26:42;;;;;;;8.40;6.23;;;24.70;99.90;;;25.36;76.63;101108.00;4980919;28;20634;-63
2023/08/21 04:29:09;;;;;;;7.53;5.83;;;24.70;99.90;;;25.37;76.71;101111.50;4990112;28;21264;-63
2023/08/21 04:31:36;;;;;;;10.27;7.20;;;24.70;99.90;;;25.37;76.57;101115.00;4979706;28;20695;-63
2023/08/21 04:34:04;;;;;;;7.97;6.17;;;24.70;99.90;;;25.39;76.82;101117.47;4972968;28;20674;-63
2023/08/21 04:36:30;;;;;;;9.80;6.27;;;24.80;99.90;;;25.38;76.34;101115.81;4988003;28;21402;-62
2023/08/21 04:38:57;;;;;;;9.30;5.70;;;24.70;99.90;;;25.37;76.57;101115.00;4975167;28;20642;-65
2023/08/21 04:41:24;;;;;;;8.33;6.23;;;24.70;99.90;;;25.40;76.45;101108.44;4979241;28;20668;-64
2023/08/21 04:43:51;;;;;;;7.20;5.73;;;24.80;99.90;;;25.42;75.92;101119.78;4983568;28;20725;-65
2023/08/21 04:46:19;;;;;;;8.70;5.90;;;24.80;99.90;;;25.40;76.37;101116.47;4983792;28;20745;-64
2023/08/21 04:48:46;;;;;;;6.97;5.90;;;24.80;99.90;;;25.41;76.38;101118.09;4985205;28;20665;-64
2023/08/21 04:51:14;;;;;;;10.97;6.93;;;24.80;99.90;;;25.46;76.16;101121.06;4983167;28;20658;-64
2023/08/21 04:53:41;;;;;;;12.20;7.00;;;24.80;99.90;;;25.55;75.83;101119.88;4974358;28;20754;-65
2023/08/21 04:56:08;;;;;;;9.30;6.57;;;24.80;99.90;;;25.68;75.45;101122.66;4986723;28;20620;-64
2023/08/21 04:58:35;;;;;;;8.03;6.17;;;25.00;99.90;;;25.83;74.69;101123.31;4980487;28;20741;-64
2023/08/21 05:01:04;;;;;;;9.33;6.67;;;25.10;99.90;;;25.99;74.07;101116.81;4979349;28;20773;-64
2023/08/21 05:03:31;;;;;;;9.50;6.23;;;25.30;99.90;;;26.14;72.92;101114.88;4983536;28;20648;-65
2023/08/21 05:05:58;;;;;;;7.37;6.20;;;25.40;99.90;;;26.29;71.94;101126.25;4983095;28;20670;-63
2023/08/21 05:08:26;;;;;;;8.60;6.73;;;25.60;99.90;;;26.43;71.59;101124.47;4993354;28;20650;-64
2023/08/21 05:10:57;;;;;;;9.90;7.47;;;25.70;99.90;;;26.58;71.14;101122.41;4975151;28;20647;-63
2023/08/21 05:13:25;;;;;;;9.20;6.30;;;25.90;99.90;;;26.73;70.17;101129.28;4975406;28;20643;-63
2023/08/21 05:15:57;;;;;;;8.10;6.23;;;26.00;99.90;;;26.89;70.00;101122.72;4989293;28;20662;-64
2023/08/21 05:18:25;;;;;;;7.97;5.80;;;26.20;99.90;;;27.08;68.90;101132.63;4975621;28;20635;-63
2023/08/21 05:20:55;;;;;;;8.50;5.90;;;26.40;99.90;;;27.32;68.00;101134.66;4983105;28;20654;-64
2023/08/21 05:23:22;;;;;;;12.70;6.10;;;26.60;99.90;;;27.52;67.79;101132.81;4977280;28;20712;-63
2023/08/21 05:25:49;;;;;;;9.70;6.33;;;26.80;99.90;;;27.74;66.41;101132.56;4977438;28;20635;-63
2023/08/21 05:28:16;;;;;;;8.03;6.50;;;26.90;99.90;;;28.00;65.95;101137.91;4978262;28;20626;-64
2023/08/21 05:30:46;;;;;;;7.60;5.83;;;27.20;99.90;;;28.24;64.38;101138.00;4991714;28;20661;-64
2023/08/21 05:33:13;;;;;;;6.17;5.57;;;27.40;99.90;;;28.52;63.56;101139.50;4985010;28;20627;-65
2023/08/21 05:35:41;;;;;;;7.13;6.03;;;27.70;99.90;;;28.77;62.94;101143.94;4975130;28;20703;-63
2023/08/21 05:38:08;;;;;;;8.60;6.50;;;27.90;99.90;;;29.03;62.06;101151.81;4972916;28;21243;-63
2023/08/21 05:40:35;;;;;;;8.50;6.20;;;28.20;99.90;;;29.31;60.97;101161.34;4978885;28;20701;-63
2023/08/21 05:43:02;;;;;;;8.10;6.23;;;28.50;99.90;;;29.62;59.82;101158.59;4980502;28;20737;-66
2023/08/21 05:45:30;;;;;;;9.70;6.80;;;28.80;99.90;;;29.95;58.60;101156.38;4984463;28;21006;-64
2023/08/21 05:47:57;;;;;;;8.07;6.63;;;29.10;99.90;;;30.32;57.87;101162.59;4965865;28;20643;-64
2023/08/21 05:50:24;;;;;;;5.80;5.20;;;29.40;99.90;;;30.59;57.01;101170.09;4978443;28;20651;-68
2023/08/21 05:52:51;;;;;;;6.67;5.87;;;29.70;99.90;;;30.85;56.21;101166.22;4983939;28;20642;-68
2023/08/21 05:55:18;;;;;;;7.60;6.03;;;30.00;99.90;;;31.23;54.74;101165.84;4990506;28;21043;-68
2023/08/21 05:57:45;;;;;;;6.53;5.70;;;30.40;99.90;;;31.67;54.07;101168.00;4977497;28;20693;-68
2023/08/21 06:00:14;;;;;;;14.53;5.87;;;30.80;99.90;;;32.06;52.77;101175.38;4987025;28;20646;-68
2023/08/21 06:02:42;;;;;;;6.50;5.37;;;31.30;99.90;;;32.23;51.67;101180.00;4982304;28;20627;-70
2023/08/21 06:05:09;;;;;;;7.20;6.00;;;31.60;99.90;;;32.59;51.59;101175.09;4974420;28;20638;-70
2023/08/21 06:07:35;;;;;;;5.63;5.13;;;31.80;99.90;;;32.89;49.80;101181.06;4977127;28;20734;-68
2023/08/21 06:10:04;;;;;;;7.50;6.70;;;32.20;99.90;;;33.21;49.63;101183.25;4979352;28;20631;-69
2023/08/21 06:12:31;;;;;;;6.77;6.00;;;32.50;99.90;;;33.71;48.60;101180.53;4976810;28;20639;-68
2023/08/21 06:14:58;;;;;;;7.53;6.20;;;32.90;99.90;;;34.01;47.29;101181.00;4983084;28;20758;-68
2023/08/21 06:17:27;;;;;;;11.60;6.17;;;33.30;99.40;;;34.28;46.07;101185.41;4985301;28;20629;-68
2023/08/21 06:19:55;;;;;;;6.57;5.90;;;33.70;98.60;;;34.64;45.82;101183.09;5000364;28;20633;-68
2023/08/21 06:22:22;;;;;;;6.60;6.00;;;34.00;97.80;;;35.26;44.33;101181.53;4977739;28;20645;-68
2023/08/21 06:24:49;;;;;;;7.90;5.87;;;34.40;96.80;;;35.80;43.43;101182.19;4979296;28;21096;-69
2023/08/21 06:27:16;;;;;;;7.17;6.43;;;35.00;95.90;;;36.28;42.16;101186.50;4978661;28;21253;-68
2023/08/21 06:29:43;;;;;;;6.50;5.90;;;35.50;94.90;;;36.78;41.54;101188.56;4982571;28;20662;-68
2023/08/21 06:32:09;;;;;;;7.30;5.57;;;35.90;93.70;;;37.32;40.28;101187.78;4971775;28;20671;-68
2023/08/21 06:34:37;;;;;;;5.73;5.13;;;36.50;92.60;;;37.72;39.27;101194.28;4977050;28;20672;-68
2023/08/21 06:37:04;;;;;;;12.53;6.30;;;36.90;91.50;;;38.11;38.49;101198.00;4975237;28;20729;-69
2023/08/21 06:39:31;;;;;;;6.47;5.87;;;37.30;90.60;;;38.64;38.23;101190.91;4983481;28;20741;-69
2023/08/21 06:42:00;;;;;;;6.10;5.53;;;37.80;89.10;;;38.92;37.47;101194.84;4986609;28;20654;-68
2023/08/21 06:44:27;;;;;;;5.60;5.17;;;38.20;86.70;;;39.31;36.61;101188.28;5003128;28;20627;-69
2023/08/21 06:46:54;;;;;;;5.20;4.80;;;38.60;84.90;;;39.78;35.81;101195.75;4981035;28;20737;-68
2023/08/21 06:49:21;;;;;;;8.43;6.03;;;39.10;82.80;;;39.79;35.82;101196.53;4978964;28;20631;-69
2023/08/21 06:51:47;;;;;;;6.40;5.90;;;39.20;81.40;;;40.42;34.71;101206.19;4982376;28;20713;-69
2023/08/21 06:54:15;;;;;;;6.60;6.00;;;39.50;79.70;;;40.61;34.47;101198.81;4964269;28;20762;-67
2023/08/21 06:56:41;;;;;;;6.83;6.07;;;39.80;78.10;;;40.71;34.38;101200.56;4977081;28;21474;-70
2023/08/21 06:59:08;;;;;;;6.30;5.80;;;39.80;77.30;;;40.67;34.77;101194.88;4981124;28;20730;-68
2023/08/21 07:01:35;;;;;;;5.60;5.20;;;39.80;76.90;;;40.47;34.72;101197.91;4980697;28;21049;-69
2023/08/21 07:04:03;;;;;;;5.60;5.07;;;39.70;76.60;;;40.36;35.03;101201.06;4971688;28;21195;-69
2023/08/21 07:06:31;;;;;;;5.97;5.47;;;39.60;76.40;;;40.44;35.16;101194.97;4991714;28;21112;-68
2023/08/21 07:08:58;;;;;;;6.00;5.53;;;39.60;76.20;;;40.61;34.51;101193.34;4973372;28;20734;-69
2023/08/21 07:11:25;;;;;;;5.57;4.50;;;39.80;75.20;;;40.39;34.44;101192.25;4983306;28;20673;-68
2023/08/21 07:13:52;;;;;;;6.27;5.77;;;39.80;74.50;;;40.28;34.84;101186.94;4984506;28;20626;-69
2023/08/21 07:16:19;;;;;;;5.83;5.33;;;39.70;74.80;;;40.46;34.61;101193.56;4987582;28;20702;-68
2023/08/21 07:18:46;;;;;;;6.07;5.57;;;39.70;74.30;;;40.79;34.15;101192.50;4991831;28;21011;-70
2023/08/21 07:21:13;;;;;;;5.63;5.13;;;40.00;73.50;;;40.91;33.72;101194.81;4988190;28;20666;-69
2023/08/21 07:23:56;;;;;;;5.13;4.77;;;40.20;72.70;;;40.22;34.86;101193.56;4992732;28;20672;-69
2023/08/21 07:26:23;;;;;;;6.13;5.63;;;39.70;72.90;;;40.04;35.32;101193.56;5007418;28;20700;-69
2023/08/21 07:28:52;;;;;;;4.50;4.17;;;39.50;73.40;;;40.10;35.40;101200.56;4984266;28;20644;-68
2023/08/21 07:31:19;;;;;;;6.23;5.70;;;39.50;73.50;;;40.15;35.53;101198.59;4992220;28;20681;-69
2023/08/21 07:33:46;;;;;;;6.20;5.70;;;39.60;73.30;;;40.42;34.83;101199.91;4987321;28;20642;-68
2023/08/21 07:36:16;;;;;;;5.23;4.73;;;39.80;72.90;;;40.66;34.92;101200.63;5002392;28;20725;-68
2023/08/21 07:38:44;;;;;;;6.13;5.70;;;40.00;72.30;;;41.05;34.49;101194.84;4989669;28;20634;-69
2023/08/21 07:41:12;;;;;;;5.30;5.00;;;40.30;71.90;;;41.29;34.13;101198.31;4976473;28;20758;-69
2023/08/21 07:43:43;;;;;;;6.00;5.60;;;40.70;71.10;;;41.62;33.20;101199.84;4980385;28;21272;-69
2023/08/21 07:46:15;;;;;;;5.73;5.10;;;41.00;69.90;;;41.89;32.94;101202.66;4984578;28;20630;-68
2023/08/21 07:48:43;;;;;;;5.30;4.90;;;41.30;69.20;;;42.22;32.53;101200.63;4957387;28;20654;-69
2023/08/21 07:51:10;;;;;;;5.47;4.97;;;41.60;68.60;;;42.08;31.74;101200.66;4984415;28;20663;-68
2023/08/21 07:53:37;;;;;;;5.80;5.40;;;41.80;67.70;;;42.22;32.13;101203.34;4991624;28;21179;-68
2023/08/21 07:56:05;;;;;;;5.60;5.23;;;41.80;67.60;;;42.28;31.67;101202.94;5002678;28;20745;-69
2023/08/21 07:58:32;;;;;;;6.43;5.93;;;42.00;66.90;;;42.44;32.06;101206.16;5001673;28;20737;-69
2023/08/21 08:01:01;;;;;;;5.40;5.10;;;42.20;66.50;;;42.66;31.51;101205.41;4981886;28;20687;-69
2023/08/21 08:03:28;;;;;;;5.60;5.20;;;42.50;65.80;;;43.04;30.73;101202.00;4988237;28;20624;-69
2023/08/21 08:05:55;;;;;;;6.03;5.60;;;42.80;65.00;;;43.37;30.43;101208.06;4978759;28;20654;-69
2023/08/21 08:08:22;;;;;;;5.43;5.13;;;43.20;64.00;;;43.64;30.21;101196.91;4979752;28;20640;-69
2023/08/21 08:10:49;;;;;;;4.73;4.53;;;43.60;63.40;;;43.81;29.75;101202.47;4986164;28;20658;-69
2023/08/21 08:13:16;;;;;;;5.20;4.90;;;43.80;62.40;;;43.89;29.96;101198.91;4987060;28;20663;-70
2023/08/21 08:15:43;;;;;;;5.60;5.30;;;44.00;62.30;;;44.27;29.61;101206.66;4978624;28;20714;-69
2023/08/21 08:18:13;;;;;;;5.80;5.40;;;44.30;61.70;;;44.81;28.53;101206.06;4972430;28;20637;-69
2023/08/21 08:20:41;;;;;;;5.30;4.20;;;44.80;60.90;;;45.29;27.83;101208.59;4980489;28;20659;-69
2023/08/21 08:23:08;;;;;;;5.40;4.40;;;45.30;59.90;;;45.11;27.48;101204.25;4986396;28;21232;-69
2023/08/21 08:25:35;;;;;;;5.10;4.77;;;45.40;58.60;;;44.94;28.57;101205.06;4981529;28;21072;-69
2023/08/21 08:28:02;;;;;;;4.53;4.37;;;45.20;58.60;;;44.92;28.55;101190.81;4989487;28;20644;-69
2023/08/21 08:30:29;;;;;;;5.40;4.93;;;45.20;58.80;;;45.25;28.06;101196.63;4979546;28;20652;-69
2023/08/21 08:32:56;;;;;;;5.10;4.80;;;45.40;58.70;;;45.24;28.58;101201.31;4978722;28;20672;-68
2023/08/21 08:35:23;;;;;;;4.83;4.63;;;45.60;58.10;;;45.20;27.81;101203.13;4989591;28;20232;-69
2023/08/21 08:37:50;;;;;;;6.00;5.40;;;45.50;57.80;;;45.18;28.02;101193.56;4985222;28;20205;-68
2023/08/21 08:40:17;;;;;;;3.97;3.87;;;45.50;57.80;;;45.36;27.86;101193.16;4998993;28;20222;-70
2023/08/21 08:42:44;;;;;;;4.53;4.33;;;45.50;57.30;;;45.71;27.38;101199.38;4988903;28;20271;-71
2023/08/21 08:45:14;;;;;;;5.10;4.90;;;45.80;57.20;;;45.92;27.54;101192.00;4992134;28;20213;-71
2023/08/21 08:47:41;;;;;;;5.53;5.23;;;46.00;56.80;;;46.44;26.39;101197.19;4999693;28;20213;-69
2023/08/21 08:50:09;;;;;;;5.10;4.90;;;46.40;56.20;;;46.77;26.51;101206.34;4989471;28;20735;-70
2023/08/21 08:52:38;;;;;;;5.70;5.40;;;46.80;55.80;;;47.17;26.03;101192.81;4973625;28;20298;-70
2023/08/21 08:55:07;;;;;;;5.45;5.25;;;47.10;55.00;;;47.80;25.05;101186.69;4973857;28;20648;-70
2023/08/21 08:57:34;;;;;;;4.90;4.70;;;47.60;54.30;;;48.10;25.17;101190.00;4966619;28;20206;-69
2023/08/21 09:00:04;;;;;;;4.63;4.43;;;48.00;54.00;;;48.60;24.16;101186.78;4970580;28;20218;-71
2023/08/21 09:02:31;;;;;;;5.18;4.88;;;48.30;53.50;;;48.85;23.73;101188.31;4974785;28;20206;-69
2023/08/21 09:04:58;;;;;;;5.30;4.90;;;48.60;52.70;;;48.83;24.15;101187.84;4978948;28;20212;-70
2023/08/21 09:07:25;;;;;;;4.30;4.13;;;48.50;52.60;;;48.41;24.19;101192.13;4974242;28;20232;-70
2023/08/21 09:09:52;;;;;;;4.80;4.60;;;48.10;52.90;;;47.49;25.50;101184.47;4985624;28;20204;-69
2023/08/21 09:12:20;;;;;;;4.57;4.17;;;47.10;53.60;;;46.39;26.63;101178.88;4988503;28;20231;-70
2023/08/21 09:14:47;;;;;;;5.83;5.40;;;45.90;54.50;;;44.74;28.01;101175.44;5006460;28;20670;-69
2023/08/21 09:17:15;;;;;;;5.57;5.27;;;44.50;55.60;;;43.05;30.49;101170.69;4986452;28;20642;-70
2023/08/21 09:19:43;;;;;;;5.63;5.23;;;42.80;57.30;;;41.85;31.69;101160.50;5005485;28;20717;-71
2023/08/21 09:22:17;;;;;;;5.40;5.10;;;41.50;58.80;;;41.05;33.34;101159.25;4996557;28;20663;-69
2023/08/21 09:25:10;;;;;;;4.97;4.60;;;40.50;60.00;;;40.22;34.26;101151.75;4979224;28;20692;-68
2023/08/21 09:27:39;;;;;;;5.07;4.63;;;39.70;61.30;;;39.48;35.13;101146.88;4981204;28;20638;-69
2023/08/21 09:30:14;;;;;;;4.57;4.27;;;38.90;62.30;;;38.87;36.00;101145.81;4990617;28;20684;-68
2023/08/21 09:32:56;;;;;;;4.60;4.20;;;38.30;63.40;;;38.36;36.09;101150.75;4984882;28;20649;-69
2023/08/21 09:35:24;;;;;;;6.53;4.63;;;37.70;63.50;;;37.93;38.22;101153.09;4981815;28;20669;-69
2023/08/21 09:37:52;;;;;;;5.07;4.57;;;37.20;65.10;;;37.63;38.90;101150.44;4981956;28;21483;-70
2023/08/21 09:40:21;;;;;;;5.17;4.77;;;36.90;66.20;;;37.27;39.36;101144.25;5004430;28;20654;-69
2023/08/21 09:42:54;;;;;;;4.30;4.00;;;36.50;67.10;;;36.98;39.43;101145.91;4983205;28;20633;-69
2023/08/21 09:45:26;;;;;;;6.73;4.77;;;36.20;67.50;;;36.88;39.69;101147.78;4974477;28;20638;-69
2023/08/21 09:47:53;;;;;;;4.50;4.20;;;36.00;67.70;;;36.59;38.86;101142.84;4981096;28;21104;-69
2023/08/21 09:50:21;;;;;;;4.83;4.43;;;35.80;66.80;;;36.36;40.02;101143.31;4973001;28;20729;-70
2023/08/21 09:52:49;;;;;;;4.63;4.30;;;35.60;67.90;;;36.14;40.19;101133.75;4979811;28;20654;-69
2023/08/21 09:55:18;;;;;;;5.00;4.60;;;35.30;68.40;;;36.04;41.35;101137.25;4986605;28;20686;-69
2023/08/21 09:57:45;;;;;;;4.40;4.10;;;35.20;69.60;;;35.99;40.96;101134.53;4997347;28;20712;-69
2023/08/21 10:00:20;;;;;;;4.13;3.77;;;35.10;69.90;;;35.84;41.13;101137.94;4984481;28;20646;-68
2023/08/21 10:02:51;;;;;;;4.83;4.40;;;35.00;69.50;;;35.59;41.32;101137.81;4962997;28;20639;-69
2023/08/21 10:05:19;;;;;;;4.33;3.97;;;34.80;69.80;;;35.40;41.69;101133.88;4984171;28;20669;-70
2023/08/21 10:07:49;;;;;;;4.57;4.17;;;34.70;70.00;;;35.25;42.34;101133.78;4995673;28;21858;-70
2023/08/21 10:10:18;;;;;;;5.30;4.80;;;34.50;70.60;;;35.19;42.72;101126.69;4981828;28;20708;-69
2023/08/21 10:12:45;;;;;;;5.23;4.73;;;34.40;71.30;;;35.38;43.02;101130.59;4987616;28;20639;-69
2023/08/21 10:15:12;;;;;;;4.67;4.27;;;34.60;71.70;;;35.53;42.53;101135.34;4974451;28;20762;-70